Terminal Aerodrome Forecast
Issued by NWS Mt. Holly, NJ

Home | Current Version | Previous Version | Text Only | Print | Product List | Glossary On
Versions: 1 2 3 4 5 6 7 8 9 10 11 12 13 14 15 16 17 18 19 20
000
FTUS41 KPHI 272327
TAFILG
TAF
KILG 272327Z 2800/2824 17008KT P6SM BKN250
     FM280400 20006KT P6SM BKN060
     FM280700 24006KT P6SM BKN045
      TEMPO 2807/2810 -SHRA OVC025
     FM281000 29006KT P6SM BKN035
     FM281300 29008KT P6SM SCT050
     FM282100 24006KT P6SM SCT050=

USA.gov is the U.S. government's official web portal to all federal, state and local government web resources and services.